createdAt,value
2018-10-01T00:00:35.561Z,14.40
2018-10-01T00:03:06.040Z,14.39
2018-10-01T00:05:36.119Z,14.38
2018-10-01T00:08:06.571Z,14.09
2018-10-01T00:10:36.907Z,14.33
2018-10-01T00:13:07.632Z,14.28
2018-10-01T00:15:39.201Z,14.30
2018-10-01T00:18:09.510Z,14.31
2018-10-01T00:20:45.362Z,14.32
2018-10-01T00:23:15.611Z,14.27
2018-10-01T00:25:46.129Z,14.28
2018-10-01T00:28:16.485Z,14.22
2018-10-01T00:30:48.875Z,14.21
2018-10-01T00:33:19.042Z,14.22
2018-10-01T00:35:49.163Z,14.22
2018-10-01T00:38:19.907Z,14.23
2018-10-01T00:40:50.036Z,14.22
2018-10-01T00:43:20.338Z,14.14
2018-10-01T00:45:50.563Z,14.12
2018-10-01T00:48:20.888Z,14.12
2018-10-01T00:50:52.179Z,14.07
2018-10-01T00:53:22.127Z,14.07
2018-10-01T00:55:52.272Z,13.98
2018-10-01T00:58:22.902Z,14.03
2018-10-01T01:00:52.813Z,13.98
2018-10-01T01:03:22.846Z,14.06
2018-10-01T01:05:54.055Z,14.06
2018-10-01T01:08:24.086Z,14.01
2018-10-01T01:10:55.294Z,13.94
2018-10-01T01:13:25.331Z,13.84
2018-10-01T01:15:55.633Z,13.83
2018-10-01T01:18:26.048Z,13.78
2018-10-01T01:20:56.871Z,13.75
2018-10-01T01:23:27.307Z,13.73
2018-10-01T01:25:57.611Z,13.75
2018-10-01T01:28:27.641Z,13.70
2018-10-01T01:30:58.101Z,13.67
2018-10-01T01:33:29.080Z,13.65
2018-10-01T01:35:59.405Z,13.61
2018-10-01T01:38:29.661Z,13.56
2018-10-01T01:40:59.676Z,13.55
2018-10-01T01:43:30.341Z,13.49
2018-10-01T01:46:00.661Z,13.46
2018-10-01T01:48:30.809Z,13.56
2018-10-01T01:51:01.049Z,13.53
2018-10-01T01:53:32.240Z,13.54
2018-10-01T01:56:03.335Z,13.52
2018-10-01T01:58:33.302Z,13.54
2018-10-01T02:01:03.637Z,13.63
2018-10-01T02:03:33.859Z,13.61
2018-10-01T02:06:04.090Z,13.70
2018-10-01T02:08:34.390Z,13.75
2018-10-01T02:11:06.317Z,13.74
2018-10-01T02:13:36.505Z,13.67
2018-10-01T02:16:06.769Z,13.77
2018-10-01T02:18:37.156Z,13.73
2018-10-01T02:21:07.571Z,13.71
2018-10-01T02:23:37.754Z,13.70
2018-10-01T02:26:07.968Z,13.64
2018-10-01T02:28:38.039Z,13.73
2018-10-01T02:31:08.364Z,13.67
2018-10-01T02:33:38.629Z,13.68
2018-10-01T02:36:09.104Z,13.68
2018-10-01T02:38:39.245Z,13.67
2018-10-01T02:41:10.609Z,13.68
2018-10-01T02:43:40.723Z,13.71
2018-10-01T02:46:11.062Z,13.71
2018-10-01T02:48:40.978Z,13.76
2018-10-01T02:51:11.656Z,13.68
2018-10-01T02:53:46.472Z,13.65
2018-10-01T02:56:16.666Z,13.67
2018-10-01T02:58:46.922Z,13.62
2018-10-01T03:01:17.798Z,13.68
2018-10-01T03:03:48.121Z,13.61
2018-10-01T03:06:18.320Z,13.61
2018-10-01T03:08:49.396Z,13.62
2018-10-01T03:11:20.297Z,13.60
2018-10-01T03:13:50.796Z,13.53
2018-10-01T03:16:20.986Z,13.58
2018-10-01T03:18:51.378Z,13.51
2018-10-01T03:21:21.982Z,13.51
2018-10-01T03:23:52.101Z,13.51
2018-10-01T03:26:22.455Z,13.53
2018-10-01T03:28:52.490Z,13.60
2018-10-01T03:31:23.275Z,13.56
2018-10-01T03:33:53.705Z,13.58
2018-10-01T03:36:26.909Z,13.60
2018-10-01T03:38:57.056Z,13.60
2018-10-01T03:41:28.016Z,13.52
2018-10-01T03:43:58.221Z,13.58
2018-10-01T03:46:29.801Z,13.58
2018-10-01T03:49:03.519Z,13.55
2018-10-01T03:51:33.938Z,13.52
2018-10-01T03:54:04.215Z,13.52
2018-10-01T03:56:34.631Z,13.51
2018-10-01T03:59:04.601Z,13.53
2018-10-01T04:01:34.755Z,13.52
2018-10-01T04:04:05.010Z,13.51
2018-10-01T04:06:35.289Z,13.47
2018-10-01T04:09:06.716Z,13.49
2018-10-01T04:11:37.640Z,13.46
2018-10-01T04:14:07.658Z,13.52
2018-10-01T04:16:37.794Z,13.49
2018-10-01T04:19:08.161Z,13.50
2018-10-01T04:21:38.113Z,13.55
2018-10-01T04:24:08.181Z,13.58
2018-10-01T04:26:38.112Z,13.55
2018-10-01T04:29:08.588Z,13.53
2018-10-01T04:31:39.554Z,13.54
2018-10-01T04:34:09.483Z,13.58
2018-10-01T04:36:41.224Z,13.56
2018-10-01T04:39:13.772Z,13.60
2018-10-01T04:41:45.303Z,13.61
2018-10-01T04:44:15.702Z,13.69
2018-10-01T04:46:45.906Z,13.73
2018-10-01T04:49:16.335Z,13.74
2018-10-01T04:51:46.418Z,13.76
2018-10-01T04:54:16.078Z,13.78
2018-10-01T04:56:45.925Z,13.81
2018-10-01T04:59:15.956Z,13.66
2018-10-01T05:01:45.742Z,13.85
2018-10-01T05:04:15.413Z,13.90
2018-10-01T05:06:50.977Z,13.88
2018-10-01T05:09:20.672Z,13.77
2018-10-01T05:11:50.470Z,13.79
2018-10-01T05:14:20.136Z,13.84
2018-10-01T05:16:49.819Z,13.78
2018-10-01T05:19:19.570Z,13.86
2018-10-01T05:21:49.243Z,13.87
2018-10-01T05:24:19.089Z,13.92
2018-10-01T05:26:49.672Z,13.89
2018-10-01T05:29:20.711Z,13.95
2018-10-01T05:31:50.589Z,13.97
2018-10-01T05:34:20.261Z,14.02
2018-10-01T05:36:49.980Z,14.01
2018-10-01T05:39:19.628Z,14.01
2018-10-01T05:41:49.283Z,14.05
2018-10-01T05:44:18.993Z,14.11
2018-10-01T05:46:48.697Z,14.14
2018-10-01T05:49:18.459Z,14.28
2018-10-01T05:51:48.162Z,14.25
2018-10-01T05:54:17.882Z,14.26
2018-10-01T05:56:47.752Z,14.28
2018-10-01T05:59:18.446Z,14.35
2018-10-01T06:01:49.169Z,14.35
2018-10-01T06:04:20.050Z,14.31
2018-10-01T06:06:49.850Z,14.24
2018-10-01T06:09:19.648Z,14.26
2018-10-01T06:11:49.431Z,14.34
2018-10-01T06:14:19.240Z,14.37
2018-10-01T06:16:49.577Z,14.41
2018-10-01T06:19:19.216Z,14.45
2018-10-01T06:21:48.888Z,14.44
2018-10-01T06:24:18.749Z,14.44
2018-10-01T06:26:48.471Z,14.44
2018-10-01T06:29:18.164Z,14.48
2018-10-01T06:31:47.913Z,14.52
2018-10-01T06:34:17.722Z,14.50
2018-10-01T06:36:47.431Z,14.57
2018-10-01T06:39:17.133Z,14.68
2018-10-01T06:41:46.889Z,14.69
2018-10-01T06:44:16.520Z,14.70
2018-10-01T06:46:46.160Z,14.78
2018-10-01T06:49:15.901Z,14.97
2018-10-01T06:51:45.636Z,14.99
2018-10-01T06:54:15.508Z,14.94
2018-10-01T06:56:45.174Z,14.92
2018-10-01T06:59:14.827Z,14.97
2018-10-01T07:01:44.529Z,15.07
2018-10-01T07:04:14.320Z,15.07
2018-10-01T07:06:43.970Z,15.11
2018-10-01T07:09:13.664Z,15.13
2018-10-01T07:11:43.503Z,15.22
2018-10-01T07:14:13.627Z,15.29
2018-10-01T07:16:43.408Z,15.33
2018-10-01T07:19:13.172Z,15.41
2018-10-01T07:21:42.868Z,15.54
2018-10-01T07:24:12.585Z,15.58
2018-10-01T07:26:42.283Z,15.65
2018-10-01T07:29:12.057Z,15.61
2018-10-01T07:31:41.708Z,15.63
2018-10-01T07:34:11.404Z,15.59
2018-10-01T07:36:43.248Z,15.63
2018-10-01T07:39:12.927Z,15.68
2018-10-01T07:41:42.713Z,15.66
2018-10-01T07:44:12.452Z,15.69
2018-10-01T07:46:42.542Z,15.72
2018-10-01T07:49:12.395Z,15.78
2018-10-01T07:51:42.532Z,15.83
2018-10-01T07:54:13.468Z,15.81
2018-10-01T07:56:44.603Z,15.75
2018-10-01T07:59:16.662Z,15.70
2018-10-01T08:01:47.583Z,15.68
2018-10-01T08:04:19.931Z,15.64
2018-10-01T08:06:50.241Z,15.63
2018-10-01T08:09:21.748Z,15.59
2018-10-01T08:11:52.929Z,15.60
2018-10-01T08:14:22.943Z,15.57
2018-10-01T08:16:53.034Z,15.49
2018-10-01T08:19:23.251Z,15.47
2018-10-01T08:21:53.656Z,15.34
2018-10-01T08:24:24.556Z,15.53
2018-10-01T08:26:55.140Z,15.54
2018-10-01T08:29:24.821Z,15.62
2018-10-01T08:31:54.537Z,15.55
2018-10-01T08:34:24.391Z,15.58
2018-10-01T08:36:54.254Z,15.60
2018-10-01T08:39:23.951Z,15.59
2018-10-01T08:41:53.598Z,15.53
2018-10-01T08:44:23.430Z,15.59
2018-10-01T08:46:53.221Z,15.67
2018-10-01T08:49:59.398Z,15.75
2018-10-01T08:52:34.058Z,15.83
2018-10-01T08:55:04.050Z,15.82
2018-10-01T08:57:33.763Z,15.77
2018-10-01T09:00:03.562Z,15.74
2018-10-01T09:02:33.297Z,15.80
2018-10-01T09:05:03.772Z,15.87
2018-10-01T09:07:33.601Z,16.06
2018-10-01T09:10:03.363Z,16.11
2018-10-01T09:12:34.167Z,16.07
2018-10-01T09:15:03.947Z,16.11
2018-10-01T09:17:33.622Z,16.18
2018-10-01T09:20:03.345Z,16.13
2018-10-01T09:22:33.079Z,16.13
2018-10-01T09:25:02.757Z,16.10
2018-10-01T09:27:33.127Z,16.19
2018-10-01T09:30:03.763Z,16.16
2018-10-01T09:32:33.919Z,16.12
2018-10-01T09:35:04.296Z,16.10
2018-10-01T09:37:34.448Z,16.13
2018-10-01T09:40:04.253Z,16.12
2018-10-01T09:42:35.832Z,16.03
2018-10-01T09:45:06.074Z,16.07
2018-10-01T09:47:37.262Z,16.08
2018-10-01T09:50:10.227Z,16.01
2018-10-01T09:52:40.387Z,16.06
2018-10-01T09:55:10.870Z,15.99
2018-10-01T09:57:42.321Z,15.97
2018-10-01T10:00:12.336Z,15.94
2018-10-01T10:02:41.995Z,15.87
2018-10-01T10:05:13.036Z,15.83
2018-10-01T10:07:42.757Z,15.81
2018-10-01T10:10:12.522Z,15.78
2018-10-01T10:12:44.021Z,15.83
2018-10-01T10:15:13.994Z,15.77
2018-10-01T10:17:43.699Z,15.76
2018-10-01T10:20:13.443Z,15.73
2018-10-01T10:22:43.964Z,15.77
2018-10-01T10:25:14.795Z,15.76
2018-10-01T10:27:44.684Z,15.72
2018-10-01T10:30:14.500Z,15.70
2018-10-01T10:32:44.182Z,15.60
2018-10-01T10:35:14.957Z,15.63
2018-10-01T10:37:44.713Z,15.66
2018-10-01T10:40:14.434Z,15.71
2018-10-01T10:42:44.110Z,15.70
2018-10-01T10:45:13.804Z,15.73
2018-10-01T10:47:43.504Z,15.82
2018-10-01T10:50:13.267Z,15.78
2018-10-01T10:52:43.047Z,15.80
2018-10-01T10:55:13.062Z,15.85
2018-10-01T10:57:42.793Z,15.80
2018-10-01T11:00:16.355Z,15.77
2018-10-01T11:02:47.448Z,15.81
2018-10-01T11:05:18.294Z,15.81
2018-10-01T11:07:47.997Z,15.78
2018-10-01T11:10:17.708Z,15.87
2018-10-01T11:12:47.472Z,15.78
2018-10-01T11:15:18.550Z,15.75
2018-10-01T11:17:48.157Z,15.73
2018-10-01T11:20:17.958Z,15.73
2018-10-01T11:22:47.631Z,15.74
2018-10-01T11:25:17.392Z,15.67
2018-10-01T11:27:47.054Z,15.75
2018-10-01T11:30:16.752Z,15.77
2018-10-01T11:32:46.456Z,15.77
2018-10-01T11:35:16.364Z,15.83
2018-10-01T11:37:45.939Z,15.79
2018-10-01T11:40:15.676Z,15.85
2018-10-01T11:42:45.461Z,15.86
2018-10-01T11:45:15.226Z,15.83
2018-10-01T11:47:45.206Z,15.79
2018-10-01T11:50:16.509Z,15.79
2018-10-01T11:52:46.249Z,15.79
2018-10-01T11:55:17.525Z,15.77
2018-10-01T11:57:47.326Z,15.76
2018-10-01T12:00:19.077Z,15.74
2018-10-01T12:02:49.140Z,15.76
2018-10-01T12:05:18.951Z,15.71
2018-10-01T12:07:48.647Z,15.69
2018-10-01T12:10:19.038Z,15.70
2018-10-01T12:12:49.451Z,15.63
2018-10-01T12:15:19.791Z,15.63
2018-10-01T12:17:49.500Z,15.64
2018-10-01T12:20:19.099Z,15.60
2018-10-01T12:22:48.720Z,15.61
2018-10-01T12:25:18.335Z,15.63
2018-10-01T12:27:48.232Z,15.64
2018-10-01T12:30:17.870Z,15.65
2018-10-01T12:32:47.578Z,15.64
2018-10-01T12:35:17.225Z,15.61
2018-10-01T12:37:47.405Z,15.63
2018-10-01T12:40:17.099Z,15.65
2018-10-01T12:42:46.894Z,15.66
2018-10-01T12:45:16.690Z,15.62
2018-10-01T12:47:46.353Z,15.58
2018-10-01T12:50:16.026Z,15.54
2018-10-01T12:52:45.807Z,15.55
2018-10-01T12:55:16.138Z,15.55
2018-10-01T12:57:46.596Z,15.48
2018-10-01T13:00:16.947Z,15.45
2018-10-01T13:02:47.091Z,15.42
2018-10-01T13:05:17.383Z,15.36
2018-10-01T13:07:47.691Z,15.40
2018-10-01T13:10:18.018Z,15.40
2018-10-01T13:12:49.216Z,15.46
2018-10-01T13:15:20.647Z,15.40
2018-10-01T13:17:50.867Z,15.44
2018-10-01T13:20:20.568Z,15.48
2018-10-01T13:22:50.444Z,15.43
2018-10-01T13:25:21.260Z,15.47
2018-10-01T13:27:51.047Z,15.49
2018-10-01T13:30:20.924Z,15.45
2018-10-01T13:32:50.432Z,15.46
2018-10-01T13:35:20.133Z,15.54
2018-10-01T13:37:49.921Z,15.52
2018-10-01T13:40:20.469Z,15.49
2018-10-01T13:42:50.074Z,15.55
2018-10-01T13:45:19.886Z,15.53
2018-10-01T13:47:49.554Z,15.59
2018-10-01T13:50:19.340Z,15.56
2018-10-01T13:52:48.981Z,15.53
2018-10-01T13:55:18.809Z,15.59
2018-10-01T13:57:48.499Z,15.61
2018-10-01T14:00:18.326Z,15.57
2018-10-01T14:02:48.605Z,15.60
2018-10-01T14:05:18.853Z,15.57
2018-10-01T14:07:48.499Z,15.60
2018-10-01T14:10:18.330Z,15.60
2018-10-01T14:12:48.077Z,15.64
2018-10-01T14:15:17.819Z,15.66
2018-10-01T14:17:47.503Z,15.68
2018-10-01T14:20:17.127Z,15.68
2018-10-01T14:22:47.229Z,15.67
2018-10-01T14:25:16.965Z,15.68
2018-10-01T14:27:47.029Z,15.72
2018-10-01T14:30:16.975Z,15.76
2018-10-01T14:32:46.599Z,15.73
2018-10-01T14:35:16.308Z,15.71
2018-10-01T14:37:47.124Z,15.71
2018-10-01T14:40:16.838Z,15.67
2018-10-01T14:42:46.452Z,15.68
2018-10-01T14:45:16.167Z,15.69
2018-10-01T14:47:45.846Z,15.72
2018-10-01T14:50:16.607Z,15.65
2018-10-01T14:52:46.983Z,15.64
2018-10-01T14:55:17.977Z,15.60
2018-10-01T14:57:48.237Z,15.65
2018-10-01T15:00:18.321Z,15.69
2018-10-01T15:02:48.405Z,15.69
2018-10-01T15:05:18.227Z,15.66
2018-10-01T15:07:47.986Z,15.69
2018-10-01T15:10:17.682Z,15.67
2018-10-01T15:12:47.820Z,15.68
2018-10-01T15:15:17.677Z,15.70
2018-10-01T15:17:48.462Z,15.70
2018-10-01T15:20:18.945Z,15.76
2018-10-01T15:22:48.672Z,15.77
2018-10-01T15:25:19.018Z,15.79
2018-10-01T15:27:50.516Z,15.80
2018-10-01T15:30:21.367Z,15.78
2018-10-01T15:32:51.781Z,15.75
2018-10-01T15:35:21.910Z,15.78
2018-10-01T15:37:52.150Z,15.81
2018-10-01T15:40:23.144Z,15.81
2018-10-01T15:42:53.503Z,15.76
2018-10-01T15:45:24.420Z,15.78
2018-10-01T15:47:55.145Z,15.71
2018-10-01T15:50:24.847Z,15.65
2018-10-01T15:52:55.604Z,15.66
2018-10-01T15:55:25.464Z,15.65
2018-10-01T15:57:55.560Z,15.55
2018-10-01T16:00:25.863Z,15.53
2018-10-01T16:02:56.123Z,15.52
2018-10-01T16:05:26.524Z,15.53
2018-10-01T16:07:56.257Z,15.52
2018-10-01T16:10:26.082Z,15.48
2018-10-01T16:12:55.889Z,15.56
2018-10-01T16:15:25.831Z,15.56
2018-10-01T16:17:55.724Z,15.59
2018-10-01T16:20:25.507Z,15.55
2018-10-01T16:22:55.234Z,15.55
2018-10-01T16:25:25.712Z,15.58
2018-10-01T16:27:55.983Z,15.65
2018-10-01T16:30:26.147Z,15.69
2018-10-01T16:32:56.711Z,15.66
2018-10-01T16:35:27.271Z,15.64
2018-10-01T16:37:58.127Z,15.62
2018-10-01T16:40:27.914Z,15.62
2018-10-01T16:42:57.713Z,15.56
2018-10-01T16:45:28.026Z,15.54
2018-10-01T16:47:59.792Z,15.51
2018-10-01T16:50:30.322Z,15.52
2018-10-01T16:53:00.121Z,15.48
2018-10-01T16:55:31.251Z,15.46
2018-10-01T16:58:01.147Z,15.49
2018-10-01T17:00:31.000Z,15.51
2018-10-01T17:03:01.894Z,15.52
2018-10-01T17:05:31.556Z,15.48
2018-10-01T17:08:01.226Z,15.55
2018-10-01T17:10:30.985Z,15.53
2018-10-01T17:13:00.901Z,15.56
2018-10-01T17:15:36.729Z,15.57
2018-10-01T17:18:06.446Z,15.55
2018-10-01T17:20:36.648Z,15.58
2018-10-01T17:23:07.488Z,15.57
2018-10-01T17:25:37.630Z,15.61
2018-10-01T17:28:07.753Z,15.58
2018-10-01T17:30:39.563Z,15.57
2018-10-01T17:33:09.355Z,15.62
2018-10-01T17:35:43.070Z,15.61
2018-10-01T17:38:14.137Z,15.64
2018-10-01T17:40:44.169Z,15.63
2018-10-01T17:43:13.947Z,15.71
2018-10-01T17:45:43.728Z,15.69
2018-10-01T17:48:14.457Z,15.65
2018-10-01T17:50:44.277Z,15.69
2018-10-01T17:53:15.257Z,15.75
2018-10-01T17:55:45.034Z,15.71
2018-10-01T17:58:14.830Z,15.70
2018-10-01T18:00:44.879Z,15.79
2018-10-01T18:03:14.608Z,15.77
2018-10-01T18:05:44.424Z,15.81
2018-10-01T18:08:14.503Z,15.77
2018-10-01T18:10:44.593Z,15.81
2018-10-01T18:13:14.871Z,15.79
2018-10-01T18:15:45.122Z,15.83
2018-10-01T18:18:16.208Z,15.84
2018-10-01T18:20:55.936Z,15.88
2018-10-01T18:23:26.176Z,15.87
2018-10-01T18:25:56.036Z,15.90
2018-10-01T18:28:26.812Z,15.90
2018-10-01T18:30:56.905Z,15.86
2018-10-01T18:33:26.616Z,15.83
2018-10-01T18:35:57.110Z,15.79
2018-10-01T18:38:28.462Z,15.79
2018-10-01T18:40:59.054Z,15.81
2018-10-01T18:43:29.288Z,15.77
2018-10-01T18:46:00.399Z,15.75
2018-10-01T18:48:30.669Z,15.83
2018-10-01T18:51:01.579Z,15.75
2018-10-01T18:53:31.724Z,15.74
2018-10-01T18:56:02.087Z,15.77
2018-10-01T18:58:31.945Z,15.81
2018-10-01T19:01:02.012Z,15.82
2018-10-01T19:03:32.415Z,15.89
2018-10-01T19:06:02.407Z,15.94
2018-10-01T19:08:32.410Z,15.92
2018-10-01T19:11:02.094Z,15.94
2018-10-01T19:13:32.363Z,15.95
2018-10-01T19:16:02.618Z,15.99
2018-10-01T19:18:33.298Z,16.03
2018-10-01T19:21:03.324Z,16.11
2018-10-01T19:23:34.075Z,16.11
2018-10-01T19:26:04.491Z,16.17
2018-10-01T19:28:35.293Z,16.20
2018-10-01T19:31:06.144Z,16.19
2018-10-01T19:33:36.360Z,16.20
2018-10-01T19:36:06.421Z,16.22
2018-10-01T19:38:36.116Z,16.23
2018-10-01T19:41:06.539Z,16.22
2018-10-01T19:43:36.316Z,16.13
2018-10-01T19:46:06.994Z,16.06
2018-10-01T19:48:36.794Z,16.09
2018-10-01T19:51:06.501Z,16.06
2018-10-01T19:53:41.555Z,16.06
2018-10-01T19:56:11.428Z,16.06
2018-10-01T19:58:41.608Z,16.16
2018-10-01T20:01:11.383Z,16.05
2018-10-01T20:03:41.212Z,16.05
2018-10-01T20:06:11.082Z,16.00
2018-10-01T20:08:45.826Z,16.00
2018-10-01T20:11:15.615Z,16.01
2018-10-01T20:13:45.812Z,16.01
2018-10-01T20:16:15.691Z,16.03
2018-10-01T20:18:45.490Z,16.02
2018-10-01T20:21:15.428Z,16.02
2018-10-01T20:23:45.795Z,16.11
2018-10-01T20:26:17.117Z,16.18
2018-10-01T20:28:47.546Z,16.17
2018-10-01T20:31:17.545Z,16.18
2018-10-01T20:33:47.251Z,16.23
2018-10-01T20:36:17.075Z,16.28
2018-10-01T20:38:46.822Z,16.28
2018-10-01T20:41:16.586Z,16.20
2018-10-01T20:58:45.897Z,16.19
2018-10-01T21:01:15.700Z,16.16
2018-10-01T21:03:45.399Z,16.14
2018-10-01T21:06:15.123Z,16.16
2018-10-01T21:08:44.928Z,16.16
2018-10-01T21:11:14.638Z,16.13
2018-10-01T21:13:44.430Z,16.14
2018-10-01T21:16:14.143Z,16.16
2018-10-01T21:18:44.138Z,16.16
2018-10-01T21:21:13.829Z,16.14
2018-10-01T21:23:44.293Z,16.14
2018-10-01T21:26:14.288Z,16.07
2018-10-01T21:28:44.630Z,16.16
2018-10-01T21:31:14.826Z,16.12
2018-10-01T21:33:45.933Z,16.11
2018-10-01T21:36:16.425Z,16.13
2018-10-01T21:38:46.685Z,16.12
2018-10-01T21:41:17.862Z,16.05
2018-10-01T21:43:48.780Z,15.99
2018-10-01T21:46:19.222Z,16.04
2018-10-01T21:48:49.477Z,16.00
2018-10-01T21:51:19.835Z,15.97
2018-10-01T21:53:49.962Z,16.07
2018-10-01T21:56:20.365Z,16.12
2018-10-01T21:58:50.889Z,16.07
2018-10-01T22:01:25.870Z,16.04
2018-10-01T22:03:56.030Z,16.03
2018-10-01T22:06:26.256Z,16.03
2018-10-01T22:08:56.835Z,16.01
2018-10-01T22:11:27.081Z,16.05
2018-10-01T22:13:56.989Z,16.02
2018-10-01T22:16:27.004Z,16.01
2018-10-01T22:18:57.005Z,15.99
2018-10-01T22:21:27.079Z,16.09
2018-10-01T22:23:57.523Z,16.10
2018-10-01T22:26:27.600Z,16.06
2018-10-01T22:28:58.023Z,16.12
2018-10-01T22:31:28.322Z,16.14
2018-10-01T22:33:59.538Z,16.09
2018-10-01T22:36:29.553Z,16.11
2018-10-01T22:38:59.997Z,16.19
2018-10-01T22:41:31.154Z,16.15
2018-10-01T22:44:03.779Z,16.17
2018-10-01T22:46:35.297Z,16.18
2018-10-01T22:49:05.649Z,16.21
2018-10-01T22:51:35.557Z,16.23
2018-10-01T22:54:05.892Z,16.20
2018-10-01T22:56:36.301Z,16.15
2018-10-01T22:59:07.812Z,16.21
2018-10-01T23:01:37.842Z,16.17
2018-10-01T23:04:07.961Z,16.19
2018-10-01T23:06:38.240Z,16.17
2018-10-01T23:09:10.698Z,16.19
2018-10-01T23:11:40.710Z,16.18
2018-10-01T23:14:10.811Z,16.11
2018-10-01T23:16:40.976Z,16.18
2018-10-01T23:19:11.046Z,16.16
2018-10-01T23:21:41.044Z,16.20
2018-10-01T23:24:11.139Z,16.23
2018-10-01T23:26:42.164Z,16.23
2018-10-01T23:29:12.504Z,16.26
2018-10-01T23:31:42.444Z,16.29
2018-10-01T23:34:12.481Z,16.29
2018-10-01T23:36:42.566Z,16.31
2018-10-01T23:39:12.675Z,16.34
2018-10-01T23:41:42.750Z,16.33
2018-10-01T23:44:12.774Z,16.36
2018-10-01T23:46:42.794Z,16.35
2018-10-01T23:49:13.059Z,16.37
2018-10-01T23:51:44.475Z,16.37
2018-10-01T23:54:14.725Z,16.40
2018-10-01T23:56:44.580Z,16.46
2018-10-01T23:59:14.909Z,16.54
